createdAt,value
2022-12-03T00:00:21.969Z,22.67
2022-12-03T00:02:48.948Z,26.17
2022-12-03T00:05:15.792Z,29.33
2022-12-03T00:07:42.573Z,26.08
2022-12-03T00:10:10.333Z,25.35
2022-12-03T00:12:37.157Z,29.92
2022-12-03T00:15:05.876Z,28.77
2022-12-03T00:17:32.951Z,23.20
2022-12-03T00:19:59.740Z,23.95
2022-12-03T00:22:26.487Z,30.02
2022-12-03T00:24:53.582Z,35.17
2022-12-03T00:27:20.633Z,28.60
2022-12-03T00:29:47.419Z,29.95
2022-12-03T00:32:14.284Z,29.30
2022-12-03T00:34:41.046Z,29.70
2022-12-03T00:37:07.818Z,31.10
2022-12-03T00:39:34.654Z,28.43
2022-12-03T00:42:01.460Z,25.83
2022-12-03T00:44:28.310Z,27.62
2022-12-03T00:46:55.178Z,33.55
2022-12-03T00:49:21.959Z,25.75
2022-12-03T00:51:48.778Z,30.83
2022-12-03T00:54:15.562Z,28.73
2022-12-03T00:56:42.408Z,27.13
2022-12-03T00:59:09.289Z,26.58
2022-12-03T01:01:36.197Z,24.35
2022-12-03T01:04:03.254Z,31.77
2022-12-03T01:06:29.954Z,29.12
2022-12-03T01:08:56.801Z,28.50
2022-12-03T01:11:38.619Z,28.77
2022-12-03T01:14:11.449Z,25.40
2022-12-03T01:16:39.177Z,26.90
2022-12-03T01:19:10.513Z,32.42
2022-12-03T01:21:37.981Z,27.98
2022-12-03T01:24:05.324Z,25.48
2022-12-03T01:26:32.111Z,28.15
2022-12-03T01:28:59.669Z,26.50
2022-12-03T01:31:45.261Z,25.77
2022-12-03T01:34:12.115Z,29.40
2022-12-03T01:36:38.970Z,27.55
2022-12-03T01:39:05.770Z,30.05
2022-12-03T01:41:34.041Z,27.60
2022-12-03T01:44:01.917Z,26.25
2022-12-03T01:46:37.699Z,29.42
2022-12-03T01:49:05.247Z,25.65
2022-12-03T01:51:32.135Z,27.23
2022-12-03T01:54:00.824Z,26.27
2022-12-03T01:56:28.141Z,30.15
2022-12-03T01:58:55.629Z,25.65
2022-12-03T02:01:22.578Z,26.20
2022-12-03T02:03:50.025Z,27.42
2022-12-03T02:06:19.480Z,25.77
2022-12-03T02:08:47.594Z,27.65
2022-12-03T02:11:33.227Z,27.83
2022-12-03T02:14:03.433Z,29.55
2022-12-03T02:16:30.846Z,27.73
2022-12-03T02:18:58.561Z,29.30
2022-12-03T02:21:59.963Z,27.37
2022-12-03T02:24:29.672Z,26.70
2022-12-03T02:26:56.575Z,28.75
2022-12-03T02:29:24.281Z,29.00
2022-12-03T02:31:51.178Z,30.07
2022-12-03T02:34:38.093Z,27.52
2022-12-03T02:37:06.844Z,27.67
2022-12-03T02:39:37.556Z,27.00
2022-12-03T02:42:24.265Z,28.02
2022-12-03T02:44:52.104Z,30.07
2022-12-03T02:47:20.601Z,26.60
2022-12-03T02:49:47.790Z,27.10
2022-12-03T02:52:15.190Z,28.98
2022-12-03T02:54:42.163Z,25.60
2022-12-03T02:57:09.078Z,28.63
2022-12-03T02:59:36.109Z,27.27
2022-12-03T03:02:03.366Z,27.73
2022-12-03T03:04:30.455Z,25.48
2022-12-03T03:06:57.405Z,26.55
2022-12-03T03:09:24.663Z,24.37
2022-12-03T03:11:51.570Z,26.30
2022-12-03T03:14:18.526Z,28.62
2022-12-03T03:16:45.397Z,27.33
2022-12-03T03:19:12.415Z,27.40
2022-12-03T03:21:39.144Z,28.23
2022-12-03T03:24:06.188Z,28.40
2022-12-03T03:26:32.995Z,27.15
2022-12-03T03:29:00.639Z,24.92
2022-12-03T03:31:29.723Z,24.70
2022-12-03T03:33:56.662Z,24.80
2022-12-03T03:36:24.683Z,29.20
2022-12-03T03:38:52.143Z,24.05
2022-12-03T03:41:20.824Z,25.90
2022-12-03T03:43:49.926Z,28.12
2022-12-03T03:46:18.256Z,21.07
2022-12-03T03:48:45.520Z,27.00
2022-12-03T03:51:13.153Z,24.12
2022-12-03T03:53:43.005Z,24.20
2022-12-03T03:56:10.912Z,26.25
2022-12-03T03:58:37.968Z,24.43
2022-12-03T04:01:05.342Z,24.40
2022-12-03T04:03:32.116Z,26.67
2022-12-03T04:05:58.832Z,26.27
2022-12-03T04:08:25.739Z,26.25
2022-12-03T04:11:10.886Z,26.57
2022-12-03T04:13:37.674Z,26.12
2022-12-03T04:16:04.720Z,21.10
2022-12-03T04:18:43.601Z,26.87
2022-12-03T04:21:35.041Z,22.62
2022-12-03T04:24:02.078Z,21.70
2022-12-03T04:26:47.153Z,24.55
2022-12-03T04:29:14.000Z,24.50
2022-12-03T04:32:00.495Z,19.58
2022-12-03T04:34:45.596Z,25.65
2022-12-03T04:37:12.369Z,22.40
2022-12-03T04:39:39.540Z,20.17
2022-12-03T04:42:06.708Z,22.85
2022-12-03T04:44:33.986Z,21.92
2022-12-03T04:47:11.855Z,23.42
2022-12-03T04:49:41.941Z,23.80
2022-12-03T04:52:09.855Z,18.85
2022-12-03T04:54:37.826Z,23.83
2022-12-03T04:57:05.742Z,24.35
2022-12-03T04:59:33.073Z,22.13
2022-12-03T05:01:59.856Z,21.20
2022-12-03T05:04:27.026Z,19.33
2022-12-03T05:06:53.831Z,24.05
2022-12-03T05:09:20.703Z,22.02
2022-12-03T05:11:47.552Z,21.87
2022-12-03T05:14:14.570Z,22.87
2022-12-03T05:16:41.362Z,22.60
2022-12-03T05:19:09.977Z,23.05
2022-12-03T05:21:36.787Z,24.52
2022-12-03T05:24:03.875Z,25.10
2022-12-03T05:26:30.629Z,22.30
2022-12-03T05:28:57.503Z,22.58
2022-12-03T05:31:24.294Z,24.73
2022-12-03T05:33:51.299Z,26.33
2022-12-03T05:36:18.166Z,21.40
2022-12-03T05:38:45.961Z,23.00
2022-12-03T05:41:31.175Z,24.17
2022-12-03T05:43:57.994Z,22.27
2022-12-03T05:46:24.761Z,19.40
2022-12-03T05:48:51.493Z,28.25
2022-12-03T05:51:18.263Z,21.40
2022-12-03T05:53:45.070Z,22.50
2022-12-03T05:56:11.814Z,21.17
2022-12-03T05:58:38.575Z,26.12
2022-12-03T06:01:05.452Z,25.67
2022-12-03T06:03:32.431Z,21.83
2022-12-03T06:05:59.427Z,22.37
2022-12-03T06:08:26.418Z,21.45
2022-12-03T06:10:53.267Z,22.92
2022-12-03T06:13:20.108Z,24.30
2022-12-03T06:15:47.027Z,19.40
2022-12-03T06:18:14.140Z,21.30
2022-12-03T06:20:40.982Z,24.05
2022-12-03T06:23:07.728Z,23.77
2022-12-03T06:25:34.543Z,21.85
2022-12-03T06:28:01.654Z,22.27
2022-12-03T06:30:28.520Z,26.70
2022-12-03T06:32:55.362Z,21.73
2022-12-03T06:35:22.198Z,22.83
2022-12-03T06:37:48.998Z,25.50
2022-12-03T06:40:16.855Z,24.10
2022-12-03T06:42:43.766Z,22.15
2022-12-03T06:45:11.317Z,21.08
2022-12-03T06:47:38.448Z,23.52
2022-12-03T06:50:06.911Z,24.05
2022-12-03T06:52:33.677Z,22.23
2022-12-03T06:55:00.718Z,18.67
2022-12-03T06:57:27.760Z,19.98
2022-12-03T06:59:54.745Z,22.70
2022-12-03T07:02:22.004Z,23.52
2022-12-03T07:04:48.710Z,25.67
2022-12-03T07:07:15.482Z,20.85
2022-12-03T07:09:42.223Z,21.70
2022-12-03T07:12:09.084Z,22.70
2022-12-03T07:14:35.853Z,22.20
2022-12-03T07:17:02.622Z,19.23
2022-12-03T07:19:32.848Z,18.00
2022-12-03T07:22:00.413Z,23.55
2022-12-03T07:24:27.583Z,22.25
2022-12-03T07:26:54.987Z,21.48
2022-12-03T07:29:22.154Z,23.20
2022-12-03T07:31:48.983Z,24.80
2022-12-03T07:34:16.094Z,23.65
2022-12-03T07:36:42.895Z,24.42
2022-12-03T07:39:09.815Z,23.08
2022-12-03T07:41:36.598Z,23.67
2022-12-03T07:44:05.581Z,24.00
2022-12-03T07:46:36.013Z,27.50
2022-12-03T07:49:03.617Z,24.48
2022-12-03T07:51:32.330Z,23.45
2022-12-03T07:53:59.483Z,22.50
2022-12-03T07:56:26.431Z,22.35
2022-12-03T07:58:53.275Z,21.70
2022-12-03T08:01:20.157Z,22.27
2022-12-03T08:03:47.163Z,25.10
2022-12-03T08:06:14.069Z,24.37
2022-12-03T08:08:40.861Z,25.02
2022-12-03T08:11:12.884Z,23.60
2022-12-03T08:13:40.226Z,20.77
2022-12-03T08:16:25.774Z,22.37
2022-12-03T08:18:54.525Z,19.70
2022-12-03T08:21:22.003Z,24.02
2022-12-03T08:23:49.077Z,23.27
2022-12-03T08:26:21.655Z,23.17
2022-12-03T08:28:48.690Z,21.73
2022-12-03T08:31:32.254Z,23.87
2022-12-03T08:34:15.369Z,25.52
2022-12-03T08:36:42.311Z,22.77
2022-12-03T08:39:18.224Z,23.20
2022-12-03T08:42:05.950Z,24.20
2022-12-03T08:44:40.978Z,24.43
2022-12-03T08:47:16.623Z,23.23
2022-12-03T08:49:47.725Z,27.75
2022-12-03T08:52:23.439Z,19.95
2022-12-03T08:54:54.284Z,21.73
2022-12-03T08:57:30.355Z,26.13
2022-12-03T09:00:13.565Z,21.12
2022-12-03T09:02:47.870Z,23.90
2022-12-03T09:05:23.718Z,26.17
2022-12-03T09:07:50.620Z,20.85
2022-12-03T09:10:18.738Z,19.50
2022-12-03T09:12:45.469Z,19.65
2022-12-03T09:15:12.316Z,21.45
2022-12-03T09:17:39.196Z,21.05
2022-12-03T09:20:07.150Z,18.62
2022-12-03T09:22:34.157Z,21.67
2022-12-03T09:25:00.960Z,22.62
2022-12-03T09:27:27.751Z,19.05
2022-12-03T09:29:54.610Z,21.17
2022-12-03T09:32:21.558Z,19.45
2022-12-03T09:34:48.428Z,23.23
2022-12-03T09:37:15.222Z,18.77
2022-12-03T09:39:42.078Z,19.77
2022-12-03T09:42:10.423Z,20.27
2022-12-03T09:44:38.261Z,19.70
2022-12-03T09:47:05.820Z,19.00
2022-12-03T09:49:35.788Z,20.80
2022-12-03T09:52:05.293Z,21.23
2022-12-03T09:54:33.228Z,19.45
2022-12-03T09:57:04.271Z,21.08
2022-12-03T09:59:34.740Z,21.03
2022-12-03T10:02:03.328Z,20.25
2022-12-03T10:04:30.479Z,21.15
2022-12-03T10:06:59.032Z,23.60
2022-12-03T10:09:28.800Z,21.42
2022-12-03T10:11:59.914Z,20.20
2022-12-03T10:14:27.782Z,20.20
2022-12-03T10:16:55.331Z,20.25
2022-12-03T10:19:26.112Z,24.83
2022-12-03T10:21:52.968Z,21.40
2022-12-03T10:24:22.816Z,19.83
2022-12-03T10:26:51.742Z,18.65
2022-12-03T10:29:22.252Z,19.80
2022-12-03T10:32:01.884Z,20.70
2022-12-03T10:34:34.373Z,21.30
2022-12-03T10:37:19.223Z,18.97
2022-12-03T10:40:09.327Z,18.70
2022-12-03T10:42:39.098Z,21.20
2022-12-03T10:45:19.514Z,20.37
2022-12-03T10:48:11.415Z,17.20
2022-12-03T10:50:46.147Z,18.27
2022-12-03T10:53:13.203Z,21.85
2022-12-03T10:55:42.107Z,17.73
2022-12-03T10:58:17.097Z,18.30
2022-12-03T11:00:43.957Z,19.60
2022-12-03T11:03:28.576Z,19.13
2022-12-03T11:05:57.142Z,19.10
2022-12-03T11:08:26.900Z,17.75
2022-12-03T11:11:18.290Z,18.50
2022-12-03T11:13:49.542Z,19.52
2022-12-03T11:16:39.257Z,19.73
2022-12-03T11:19:37.736Z,18.77
2022-12-03T11:22:04.889Z,18.62
2022-12-03T11:24:36.672Z,17.60
2022-12-03T11:27:03.377Z,16.75
2022-12-03T11:30:14.907Z,18.17
2022-12-03T11:32:44.387Z,20.55
2022-12-03T11:35:37.895Z,18.02
2022-12-03T11:38:40.868Z,18.80
2022-12-03T11:41:08.694Z,16.20
2022-12-03T11:44:24.550Z,18.93
2022-12-03T11:46:51.567Z,16.80
2022-12-03T11:49:34.641Z,18.52
2022-12-03T11:52:11.880Z,16.92
2022-12-03T11:54:38.730Z,19.23
2022-12-03T11:57:26.844Z,17.00
2022-12-03T11:59:58.726Z,14.98
2022-12-03T12:02:25.763Z,15.75
2022-12-03T12:04:52.604Z,15.85
2022-12-03T12:07:37.324Z,18.40
2022-12-03T12:10:05.539Z,15.43
2022-12-03T12:12:39.785Z,18.62
2022-12-03T12:15:33.038Z,14.70
2022-12-03T12:18:36.922Z,15.57
2022-12-03T12:21:55.170Z,14.55
2022-12-03T12:24:40.640Z,16.10
2022-12-03T12:27:15.517Z,16.52
2022-12-03T12:29:45.822Z,15.13
2022-12-03T12:32:15.871Z,14.87
2022-12-03T12:34:45.691Z,15.27
2022-12-03T12:37:27.085Z,14.70
2022-12-03T12:39:57.032Z,15.05
2022-12-03T12:42:33.135Z,12.80
2022-12-03T12:45:13.816Z,13.40
2022-12-03T12:47:48.040Z,13.77
2022-12-03T12:50:17.064Z,13.17
2022-12-03T12:52:50.450Z,14.48
2022-12-03T12:55:17.871Z,13.50
2022-12-03T12:57:44.874Z,16.05
2022-12-03T13:00:21.608Z,14.70
2022-12-03T13:03:03.010Z,16.00
2022-12-03T13:05:38.133Z,17.17
2022-12-03T13:08:24.119Z,16.42
2022-12-03T13:10:53.528Z,16.33
2022-12-03T13:13:26.448Z,17.35
2022-12-03T13:16:02.494Z,16.27
2022-12-03T13:18:53.115Z,13.95
2022-12-03T13:21:24.301Z,11.75
2022-12-03T13:23:54.175Z,12.15
2022-12-03T13:26:38.084Z,15.98
2022-12-03T13:29:12.229Z,19.43
2022-12-03T13:31:43.452Z,25.42
2022-12-03T13:34:21.544Z,17.05
2022-12-03T13:36:55.491Z,15.35
2022-12-03T13:39:27.801Z,13.18
2022-12-03T13:42:14.011Z,11.07
2022-12-03T13:44:49.433Z,13.62
2022-12-03T13:47:20.689Z,12.05
2022-12-03T13:50:03.404Z,13.13
2022-12-03T13:52:32.850Z,11.52
2022-12-03T13:55:04.261Z,12.23
2022-12-03T13:57:31.019Z,12.15
2022-12-03T13:59:57.738Z,13.75
2022-12-03T14:02:24.739Z,12.20
2022-12-03T14:04:55.448Z,13.98
2022-12-03T14:07:26.753Z,11.43
2022-12-03T14:09:53.898Z,13.13
2022-12-03T14:12:27.072Z,13.38
2022-12-03T14:14:54.358Z,13.20
2022-12-03T14:17:21.215Z,13.40
2022-12-03T14:19:48.264Z,14.60
2022-12-03T14:22:15.034Z,13.27
2022-12-03T14:24:41.886Z,15.02
2022-12-03T14:27:08.570Z,13.85
2022-12-03T14:29:35.580Z,15.77
2022-12-03T14:32:02.410Z,12.97
2022-12-03T14:34:29.182Z,13.90
2022-12-03T14:36:55.989Z,16.98
2022-12-03T14:39:22.829Z,17.40
2022-12-03T14:42:08.536Z,17.17
2022-12-03T14:44:35.345Z,46.13
2022-12-03T14:47:02.194Z,40.45
2022-12-03T14:49:29.054Z,42.10
2022-12-03T14:51:55.976Z,39.97
2022-12-03T14:54:25.948Z,29.05
2022-12-03T14:56:52.918Z,24.47
2022-12-03T14:59:24.384Z,21.65
2022-12-03T15:01:54.451Z,23.35
2022-12-03T15:04:21.523Z,24.55
2022-12-03T15:06:48.369Z,22.20
2022-12-03T15:09:15.282Z,19.13
2022-12-03T15:11:46.134Z,17.25
2022-12-03T15:14:13.565Z,16.90
2022-12-03T15:16:40.530Z,20.23
2022-12-03T15:19:08.728Z,18.37
2022-12-03T15:21:35.686Z,23.27
2022-12-03T15:24:03.130Z,18.77
2022-12-03T15:26:30.147Z,20.40
2022-12-03T15:28:57.193Z,21.50
2022-12-03T15:31:23.989Z,21.40
2022-12-03T15:33:50.897Z,21.27
2022-12-03T15:36:17.810Z,20.80
2022-12-03T15:38:46.127Z,19.85
2022-12-03T15:41:24.368Z,20.37
2022-12-03T15:43:53.111Z,19.10
2022-12-03T15:46:20.951Z,20.43
2022-12-03T15:48:48.982Z,20.25
2022-12-03T15:51:16.534Z,22.73
2022-12-03T15:53:43.491Z,22.20
2022-12-03T15:56:12.058Z,21.65
2022-12-03T15:58:39.974Z,22.67
2022-12-03T16:01:08.793Z,26.20
2022-12-03T16:03:36.977Z,26.17
2022-12-03T16:06:04.195Z,25.90
2022-12-03T16:08:31.101Z,30.15
2022-12-03T16:10:57.964Z,30.83
2022-12-03T16:13:24.720Z,28.75
2022-12-03T16:15:51.869Z,29.77
2022-12-03T16:18:18.689Z,30.58
2022-12-03T16:20:45.795Z,28.98
2022-12-03T16:23:12.552Z,30.00
2022-12-03T16:25:39.305Z,25.45
2022-12-03T16:28:06.568Z,33.88
2022-12-03T16:30:33.648Z,29.80
2022-12-03T16:33:00.510Z,34.22
2022-12-03T16:35:27.313Z,33.53
2022-12-03T16:37:54.124Z,33.50
2022-12-03T16:40:21.235Z,31.62
2022-12-03T16:42:48.031Z,28.67
2022-12-03T16:45:30.216Z,26.65
2022-12-03T16:47:57.113Z,35.10
2022-12-03T16:50:29.427Z,31.37
2022-12-03T16:52:57.493Z,29.45
2022-12-03T16:55:24.683Z,27.62
2022-12-03T16:57:51.665Z,33.88
2022-12-03T17:00:22.058Z,30.00
2022-12-03T17:02:49.014Z,29.30
2022-12-03T17:05:16.039Z,28.67
2022-12-03T17:07:42.965Z,30.08
2022-12-03T17:10:10.664Z,27.13
2022-12-03T17:13:07.590Z,34.37
2022-12-03T17:15:26.879Z,44.00
2022-12-03T17:17:54.101Z,29.08
2022-12-03T17:20:21.059Z,32.08
2022-12-03T17:22:48.116Z,32.55
2022-12-03T17:25:15.097Z,36.00
2022-12-03T17:27:45.417Z,69.60
2022-12-03T17:30:13.250Z,38.78
2022-12-03T17:32:40.740Z,40.05
2022-12-03T17:35:08.578Z,43.15
2022-12-03T17:37:36.523Z,37.33
2022-12-03T17:40:06.691Z,30.83
2022-12-03T17:42:33.634Z,40.30
2022-12-03T17:45:00.368Z,36.30
2022-12-03T17:47:27.703Z,36.30
2022-12-03T17:49:55.379Z,34.23
2022-12-03T17:52:22.845Z,33.45
2022-12-03T17:55:10.051Z,35.80
2022-12-03T17:57:37.140Z,34.90
2022-12-03T18:00:04.504Z,32.70
2022-12-03T18:02:31.566Z,36.73
2022-12-03T18:04:58.795Z,32.75
2022-12-03T18:07:25.825Z,31.35
2022-12-03T18:09:53.378Z,31.00
2022-12-03T18:12:20.421Z,34.63
2022-12-03T18:14:47.229Z,34.60
2022-12-03T18:17:14.823Z,31.55
2022-12-03T18:19:42.124Z,33.78
2022-12-03T18:22:09.223Z,32.28
2022-12-03T18:24:36.049Z,34.90
2022-12-03T18:27:02.869Z,36.77
2022-12-03T18:29:29.722Z,32.75
2022-12-03T18:31:56.740Z,32.97
2022-12-03T18:34:23.537Z,34.90
2022-12-03T18:36:50.663Z,34.15
2022-12-03T18:39:27.347Z,31.90
2022-12-03T18:41:54.546Z,33.55
2022-12-03T18:44:21.576Z,34.97
2022-12-03T18:46:55.663Z,33.75
2022-12-03T18:49:22.787Z,30.02
2022-12-03T18:51:54.459Z,31.37
2022-12-03T18:54:22.773Z,33.08
2022-12-03T18:56:49.581Z,40.95
2022-12-03T18:59:16.716Z,38.60
2022-12-03T19:01:44.018Z,36.10
2022-12-03T19:04:11.222Z,35.23
2022-12-03T19:06:38.315Z,63.95
2022-12-03T19:09:05.370Z,79.97
2022-12-03T19:11:34.513Z,50.00
2022-12-03T19:14:03.332Z,47.53
2022-12-03T19:16:30.815Z,50.67
2022-12-03T19:18:57.944Z,45.22
2022-12-03T19:21:27.351Z,44.58
2022-12-03T19:24:23.884Z,54.90
2022-12-03T19:26:45.998Z,53.60
2022-12-03T19:29:13.306Z,49.93
2022-12-03T19:31:40.629Z,52.05
2022-12-03T19:34:08.068Z,75.20
2022-12-03T19:36:35.352Z,52.20
2022-12-03T19:39:02.781Z,48.22
2022-12-03T19:41:33.026Z,47.83
2022-12-03T19:44:00.389Z,49.35
2022-12-03T19:46:32.242Z,48.65
2022-12-03T19:48:59.991Z,46.05
2022-12-03T19:51:35.339Z,46.35
2022-12-03T19:54:07.933Z,46.60
2022-12-03T19:56:35.289Z,51.20
2022-12-03T19:59:03.380Z,51.70
2022-12-03T20:01:34.061Z,72.75
2022-12-03T20:04:03.651Z,65.60
2022-12-03T20:06:33.696Z,54.37
2022-12-03T20:09:04.559Z,63.03
2022-12-03T20:11:33.687Z,72.03
2022-12-03T20:14:04.431Z,66.72
2022-12-03T20:16:39.809Z,93.30
2022-12-03T20:19:08.270Z,102.43
2022-12-03T20:21:37.438Z,111.53
2022-12-03T20:24:07.031Z,123.40
2022-12-03T20:26:34.881Z,111.35
2022-12-03T20:29:05.253Z,91.40
2022-12-03T20:31:32.882Z,127.57
2022-12-03T20:34:03.021Z,126.57
2022-12-03T20:36:32.020Z,115.88
2022-12-03T20:39:01.665Z,128.23
2022-12-03T20:41:29.870Z,114.82
2022-12-03T20:43:57.254Z,113.97
2022-12-03T20:46:29.594Z,100.32
2022-12-03T20:48:58.286Z,100.85
2022-12-03T20:51:29.436Z,101.00
2022-12-03T20:53:58.348Z,89.47
2022-12-03T20:56:31.648Z,82.07
2022-12-03T20:59:07.087Z,82.90
2022-12-03T21:01:36.442Z,90.40
2022-12-03T21:04:05.029Z,86.15
2022-12-03T21:06:34.558Z,74.30
2022-12-03T21:09:02.135Z,77.23
2022-12-03T21:11:30.902Z,82.55
2022-12-03T21:13:59.110Z,76.78
2022-12-03T21:16:59.205Z,69.97
2022-12-03T21:19:18.233Z,67.72
2022-12-03T21:21:45.172Z,65.53
2022-12-03T21:24:13.029Z,62.88
2022-12-03T21:26:40.555Z,69.55
2022-12-03T21:29:09.057Z,62.10
2022-12-03T21:31:38.706Z,62.95
2022-12-03T21:34:05.787Z,58.87
2022-12-03T21:36:32.876Z,57.33
2022-12-03T21:39:00.262Z,63.47
2022-12-03T21:41:27.470Z,63.10
2022-12-03T21:43:54.256Z,56.05
2022-12-03T21:47:10.205Z,65.47
2022-12-03T21:49:08.532Z,63.83
2022-12-03T21:51:36.548Z,57.53
2022-12-03T21:54:04.999Z,62.90
2022-12-03T21:56:33.078Z,62.95
2022-12-03T21:59:02.313Z,57.93
2022-12-03T22:01:29.306Z,57.05
2022-12-03T22:04:04.698Z,58.00
2022-12-03T22:06:31.454Z,56.97
2022-12-03T22:08:59.163Z,59.88
2022-12-03T22:11:26.019Z,55.30
2022-12-03T22:13:54.504Z,57.95
2022-12-03T22:16:21.754Z,55.65
2022-12-03T22:18:49.341Z,56.88
2022-12-03T22:21:18.977Z,58.78
2022-12-03T22:23:46.405Z,55.17
2022-12-03T22:26:15.510Z,59.10
2022-12-03T22:28:44.052Z,52.33
2022-12-03T22:31:12.171Z,57.25
2022-12-03T22:33:39.498Z,53.42
2022-12-03T22:36:14.645Z,55.93
2022-12-03T22:38:45.166Z,51.65
2022-12-03T22:41:13.753Z,49.22
2022-12-03T22:43:40.746Z,48.35
2022-12-03T22:46:12.402Z,49.38
2022-12-03T22:48:41.264Z,44.23
2022-12-03T22:51:14.344Z,49.50
2022-12-03T22:53:41.251Z,49.80
2022-12-03T22:56:08.415Z,50.25
2022-12-03T22:58:37.733Z,51.08
2022-12-03T23:01:04.681Z,46.87
2022-12-03T23:03:31.519Z,46.60
2022-12-03T23:05:58.376Z,44.42
2022-12-03T23:08:25.176Z,46.88
2022-12-03T23:10:53.309Z,48.15
2022-12-03T23:13:20.715Z,50.97
2022-12-03T23:15:50.599Z,53.28
2022-12-03T23:18:18.994Z,46.80
2022-12-03T23:20:51.702Z,48.20
2022-12-03T23:23:20.924Z,51.60
2022-12-03T23:26:02.176Z,49.13
2022-12-03T23:28:30.325Z,50.95
2022-12-03T23:30:57.612Z,53.22
2022-12-03T23:33:25.440Z,46.13
2022-12-03T23:35:52.187Z,45.35
2022-12-03T23:38:19.024Z,43.67
2022-12-03T23:40:48.457Z,42.95
2022-12-03T23:43:15.845Z,40.65
2022-12-03T23:45:42.643Z,45.55
2022-12-03T23:48:09.373Z,48.70
2022-12-03T23:50:39.610Z,44.50
2022-12-03T23:53:06.384Z,39.65
2022-12-03T23:55:33.693Z,67.62
2022-12-03T23:58:03.676Z,71.25
